Time;durP1;ratioP1;P1;durP2;ratioP2;P2;SDS_P1;SDS_P2;PMS_P1;PMS_P2;Temp;Humidity;BMP_temperature;BMP_pressure;BME280_temperature;BME280_humidity;BME280_pressure;Samples;Min_cycle;Max_cycle;Signal;HPM_P1;HPM_P2
2021/11/01 00:02:57;;;;;;;33.05;21.08;;;14.60;99.90;;;;;;5070039;28;20055;-69
2021/11/01 00:06:01;;;;;;;30.00;19.42;;;14.70;99.90;;;;;;5070998;28;20478;-68
2021/11/01 00:09:06;;;;;;;28.58;18.85;;;14.70;99.90;;;;;;5057298;28;20419;-69
2021/11/01 00:12:10;;;;;;;31.63;21.02;;;14.70;99.90;;;;;;5070168;28;20048;-69
2021/11/01 00:15:14;;;;;;;32.80;21.02;;;14.70;99.90;;;;;;5069117;28;20505;-69
2021/11/01 00:18:18;;;;;;;34.67;21.25;;;14.70;99.90;;;;;;5069916;28;20094;-68
2021/11/01 00:21:24;;;;;;;28.98;20.92;;;14.50;99.90;;;;;;5071379;28;20048;-68
2021/11/01 00:24:28;;;;;;;29.70;20.08;;;14.50;99.90;;;;;;5070641;28;20088;-68
2021/11/01 00:27:33;;;;;;;35.08;20.83;;;14.50;99.90;;;;;;5071286;28;20383;-68
2021/11/01 00:30:37;;;;;;;32.30;19.67;;;14.60;99.90;;;;;;5071402;28;20039;-66
2021/11/01 00:33:42;;;;;;;29.42;20.23;;;14.60;99.90;;;;;;5071538;28;20048;-66
2021/11/01 00:36:46;;;;;;;30.20;20.13;;;14.70;99.90;;;;;;5070696;28;20065;-68
2021/11/01 00:39:51;;;;;;;29.55;20.88;;;14.70;99.90;;;;;;5075088;28;20047;-66
2021/11/01 00:42:55;;;;;;;32.20;21.50;;;14.70;99.90;;;;;;5073871;28;20043;-66
2021/11/01 00:45:59;;;;;;;34.65;22.80;;;14.60;99.90;;;;;;5073578;28;20047;-66
2021/11/01 00:49:04;;;;;;;30.90;20.48;;;14.50;99.90;;;;;;5074167;28;20052;-66
2021/11/01 00:52:08;;;;;;;30.85;20.83;;;14.40;99.90;;;;;;5073848;28;20047;-68
2021/11/01 00:55:21;;;;;;;29.90;19.55;;;14.30;99.90;;;;;;5074029;28;20521;-68
2021/11/01 00:58:26;;;;;;;30.13;19.60;;;14.30;99.90;;;;;;5074161;28;20398;-68
2021/11/01 01:01:32;;;;;;;34.65;20.52;;;14.30;99.90;;;;;;5074388;28;20059;-66
2021/11/01 01:04:36;;;;;;;35.08;21.15;;;14.40;99.90;;;;;;5073730;28;20059;-68
2021/11/01 01:07:41;;;;;;;34.75;21.83;;;14.40;99.90;;;;;;5072032;28;20047;-68
2021/11/01 01:10:47;;;;;;;36.20;23.30;;;14.40;99.90;;;;;;5072743;28;20083;-68
2021/11/01 01:13:53;;;;;;;29.58;20.23;;;14.30;99.90;;;;;;5072685;28;20041;-67
2021/11/01 01:17:00;;;;;;;32.63;21.15;;;14.30;99.90;;;;;;5072507;28;20094;-68
2021/11/01 01:20:09;;;;;;;33.58;21.25;;;14.20;99.90;;;;;;5071482;28;20414;-68
2021/11/01 01:23:14;;;;;;;37.15;23.73;;;14.20;99.90;;;;;;5072473;28;20043;-68
2021/11/01 01:26:18;;;;;;;38.15;24.65;;;14.10;99.90;;;;;;5072242;28;20044;-68
2021/11/01 01:29:22;;;;;;;38.42;24.42;;;14.10;99.90;;;;;;5071968;28;20056;-68
2021/11/01 01:32:26;;;;;;;35.83;23.98;;;14.10;99.90;;;;;;5072221;28;20036;-68
2021/11/01 01:35:34;;;;;;;38.60;24.52;;;14.10;99.90;;;;;;5072355;28;20051;-68
2021/11/01 01:38:39;;;;;;;40.78;25.35;;;14.10;99.90;;;;;;5071830;28;20047;-69
2021/11/01 01:41:47;;;;;;;35.03;23.88;;;14.00;99.90;;;;;;5072466;28;20043;-69
2021/11/01 01:44:51;;;;;;;35.55;23.23;;;13.90;99.90;;;;;;5072369;28;20051;-68
2021/11/01 01:47:56;;;;;;;44.65;27.88;;;13.70;99.90;;;;;;5071805;28;20044;-68
2021/11/01 01:51:00;;;;;;;45.97;29.48;;;13.60;99.90;;;;;;5072595;28;20423;-68
2021/11/01 01:54:04;;;;;;;43.45;28.20;;;13.40;99.90;;;;;;5072273;28;20043;-68
2021/11/01 01:57:09;;;;;;;42.78;27.73;;;13.40;99.90;;;;;;5071941;28;20035;-68
2021/11/01 02:01:06;;;;;;;45.90;29.63;;;13.40;99.90;;;;;;5071468;28;20039;-68
2021/11/01 02:03:52;;;;;;;40.10;27.58;;;13.40;99.90;;;;;;5072997;28;20505;-68
2021/11/01 02:07:09;;;;;;;44.95;30.05;;;13.40;99.90;;;;;;5071199;28;20043;-68
2021/11/01 02:10:27;;;;;;;50.03;31.45;;;13.20;99.90;;;;;;5071257;28;20044;-68
2021/11/01 02:13:35;;;;;;;49.53;31.27;;;13.20;99.90;;;;;;5071873;28;20040;-68
2021/11/01 02:16:41;;;;;;;46.85;31.42;;;13.30;99.90;;;;;;5071567;28;20063;-68
2021/11/01 02:19:47;;;;;;;51.10;32.13;;;13.30;99.90;;;;;;5071268;28;20043;-68
2021/11/01 02:22:57;;;;;;;50.42;29.70;;;13.40;99.90;;;;;;5071692;28;20051;-68
2021/11/01 02:26:03;;;;;;;43.92;29.08;;;13.40;99.90;;;;;;5072005;28;20063;-68
2021/11/01 02:29:09;;;;;;;44.85;29.45;;;13.40;99.90;;;;;;5070795;28;20048;-68
2021/11/01 02:32:14;;;;;;;44.38;29.20;;;13.40;99.90;;;;;;5071593;28;20055;-68
2021/11/01 02:35:19;;;;;;;44.65;28.70;;;13.50;99.90;;;;;;5070479;28;20044;-68
2021/11/01 02:38:33;;;;;;;45.13;29.20;;;13.50;99.90;;;;;;5069868;28;20501;-68
2021/11/01 02:41:38;;;;;;;41.58;27.77;;;13.50;99.90;;;;;;5070796;28;20048;-68
2021/11/01 02:45:00;;;;;;;42.58;28.95;;;13.50;99.90;;;;;;5070956;28;20521;-68
2021/11/01 02:48:04;;;;;;;45.63;29.83;;;13.50;99.90;;;;;;5070046;28;20044;-68
2021/11/01 02:51:08;;;;;;;50.20;30.10;;;13.60;99.90;;;;;;5070753;28;20051;-68
2021/11/01 02:54:12;;;;;;;51.28;30.88;;;13.50;99.90;;;;;;5070962;28;20051;-68
2021/11/01 02:57:17;;;;;;;49.80;30.92;;;13.50;99.90;;;;;;5070551;28;20048;-67
2021/11/01 03:00:26;;;;;;;49.05;30.50;;;13.50;99.90;;;;;;5069612;28;20051;-68
2021/11/01 03:03:30;;;;;;;51.50;31.92;;;13.40;99.90;;;;;;5070707;28;20344;-68
2021/11/01 03:06:34;;;;;;;51.60;33.40;;;13.50;99.90;;;;;;5070495;28;20525;-68
2021/11/01 03:09:41;;;;;;;63.58;38.03;;;13.50;99.90;;;;;;5070050;28;20055;-68
2021/11/01 03:12:47;;;;;;;51.45;32.22;;;13.60;99.90;;;;;;5070323;28;20047;-68
2021/11/01 03:15:52;;;;;;;51.35;31.73;;;13.60;99.90;;;;;;5070551;28;20043;-68
2021/11/01 03:19:07;;;;;;;50.13;31.05;;;13.60;99.90;;;;;;5069877;28;20048;-68
2021/11/01 03:22:13;;;;;;;49.17;30.27;;;13.60;99.90;;;;;;5070609;28;20051;-68
2021/11/01 03:25:23;;;;;;;51.25;31.67;;;13.60;99.90;;;;;;5070398;28;20107;-68
2021/11/01 03:28:33;;;;;;;45.58;29.70;;;13.60;99.90;;;;;;5069263;28;20043;-68
2021/11/01 03:31:40;;;;;;;46.72;31.08;;;13.60;99.90;;;;;;5070315;28;20513;-68
2021/11/01 03:34:45;;;;;;;49.78;30.88;;;13.60;99.90;;;;;;5070447;28;20509;-68
2021/11/01 03:37:52;;;;;;;44.85;29.00;;;13.60;99.90;;;;;;5069968;28;20040;-68
2021/11/01 03:40:57;;;;;;;49.13;28.23;;;13.60;99.90;;;;;;5070468;28;20047;-68
2021/11/01 03:44:07;;;;;;;44.97;28.08;;;13.70;99.90;;;;;;5070377;28;20067;-68
2021/11/01 03:47:14;;;;;;;50.30;29.33;;;13.70;99.90;;;;;;5070944;28;20047;-68
2021/11/01 03:53:29;;;;;;;47.65;30.25;;;13.70;99.90;;;;;;5069637;28;20044;-68
2021/11/01 03:56:36;;;;;;;43.20;27.05;;;13.50;99.90;;;;;;5069921;28;20048;-68
2021/11/01 03:59:40;;;;;;;52.75;30.45;;;13.50;99.90;;;;;;5069838;28;20052;-68
2021/11/01 04:02:48;;;;;;;49.40;31.20;;;13.50;99.90;;;;;;5068897;28;20048;-68
2021/11/01 04:06:03;;;;;;;49.97;31.17;;;13.50;99.90;;;;;;5070338;28;20051;-68
2021/11/01 04:09:16;;;;;;;55.70;31.33;;;13.50;99.90;;;;;;5068494;28;20051;-68
2021/11/01 04:12:20;;;;;;;45.28;28.90;;;13.60;99.90;;;;;;5072766;28;20043;-68
2021/11/01 04:15:25;;;;;;;45.88;28.20;;;13.60;99.90;;;;;;5073336;28;20052;-68
2021/11/01 04:18:40;;;;;;;47.33;29.40;;;13.60;99.90;;;;;;5073634;28;20387;-68
2021/11/01 04:21:46;;;;;;;45.58;28.65;;;13.70;99.90;;;;;;5073990;28;20050;-69
2021/11/01 04:24:51;;;;;;;46.35;29.23;;;13.60;99.90;;;;;;5073412;28;20039;-69
2021/11/01 04:27:57;;;;;;;44.30;28.45;;;13.70;99.90;;;;;;5073223;28;20044;-68
2021/11/01 04:31:08;;;;;;;52.00;32.15;;;13.80;99.90;;;;;;5073222;28;20324;-68
2021/11/01 04:37:27;;;;;;;44.95;28.73;;;13.50;99.90;;;;;;5072369;28;20040;-69
2021/11/01 04:53:55;;;;;;;47.55;30.35;;;13.60;99.90;;;;;;5073386;28;20043;-68
2021/11/01 04:56:59;;;;;;;46.13;29.33;;;13.70;99.90;;;;;;5073413;28;20043;-68
2021/11/01 05:00:05;;;;;;;47.33;29.13;;;13.70;99.90;;;;;;5073003;28;20497;-68
2021/11/01 05:03:15;;;;;;;45.30;28.35;;;13.70;99.90;;;;;;5073421;28;20052;-68
2021/11/01 05:06:25;;;;;;;43.30;28.15;;;13.70;99.90;;;;;;5073179;28;20059;-68
2021/11/01 05:09:37;;;;;;;43.58;26.92;;;13.70;99.90;;;;;;5072223;28;20052;-68
2021/11/01 05:12:43;;;;;;;59.33;29.75;;;13.70;99.90;;;;;;5072768;28;20111;-67
2021/11/01 05:19:22;;;;;;;42.90;27.67;;;13.60;99.90;;;;;;5070817;28;20043;-68
2021/11/01 05:26:03;;;;;;;49.80;30.00;;;13.50;99.90;;;;;;5071940;28;20394;-68
2021/11/01 05:29:09;;;;;;;46.33;29.98;;;13.60;99.90;;;;;;5071502;28;20036;-68
2021/11/01 05:32:18;;;;;;;47.63;29.42;;;13.60;99.90;;;;;;5069189;28;20040;-68
2021/11/01 05:35:22;;;;;;;52.78;31.40;;;13.40;99.90;;;;;;5072414;28;20043;-68
2021/11/01 05:38:26;;;;;;;53.40;30.33;;;13.30;99.90;;;;;;5072339;28;20059;-68
2021/11/01 05:41:30;;;;;;;47.03;28.90;;;13.30;99.90;;;;;;5072984;28;20059;-68
2021/11/01 05:44:34;;;;;;;58.55;31.23;;;13.40;99.90;;;;;;5071440;28;20040;-68
2021/11/01 05:47:41;;;;;;;52.75;30.85;;;13.40;99.90;;;;;;5071344;28;20047;-68
2021/11/01 05:50:45;;;;;;;42.78;28.30;;;13.30;99.90;;;;;;5071920;28;20051;-68
2021/11/01 05:53:53;;;;;;;48.03;29.83;;;13.30;99.90;;;;;;5071861;28;20043;-67
2021/11/01 06:03:57;;;;;;;45.60;28.30;;;13.40;99.90;;;;;;5065034;28;20055;-68
2021/11/01 06:13:46;;;;;;;42.35;28.63;;;13.30;99.90;;;;;;5071657;28;20058;-68
2021/11/01 06:16:51;;;;;;;44.03;28.25;;;13.40;99.90;;;;;;5071670;28;20379;-68
2021/11/01 06:19:55;;;;;;;51.83;30.27;;;13.30;99.90;;;;;;5071073;28;20049;-68
2021/11/01 06:22:59;;;;;;;53.40;30.60;;;13.40;99.90;;;;;;5071587;28;20066;-68
2021/11/01 06:26:03;;;;;;;52.08;32.10;;;13.30;99.90;;;;;;5071576;28;20049;-68
2021/11/01 06:29:09;;;;;;;69.88;30.92;;;13.20;99.90;;;;;;5071166;28;20044;-68
2021/11/01 06:32:25;;;;;;;138.73;34.17;;;13.20;99.90;;;;;;5071986;28;20498;-68
2021/11/01 06:42:37;;;;;;;51.25;32.20;;;13.20;99.90;;;;;;5071208;28;20398;-68
2021/11/01 07:15:49;;;;;;;66.13;37.50;;;13.20;99.90;;;;;;5070480;28;20051;-68
2021/11/01 07:19:19;;;;;;;56.40;33.90;;;13.20;99.90;;;;;;5070365;28;20051;-68
2021/11/01 08:36:10;;;;;;;48.72;31.13;;;14.60;99.90;;;;;;5069634;28;20048;-67
2021/11/01 09:39:46;;;;;;;35.42;23.17;;;16.40;99.90;;;;;;5072825;28;20052;-68
2021/11/01 09:42:48;;;;;;;27.13;19.85;;;16.50;99.90;;;;;;5072785;28;20043;-68
2021/11/01 09:46:02;;;;;;;25.63;18.75;;;16.20;99.90;;;;;;5072813;28;20371;-68
2021/11/01 09:49:15;;;;;;;28.73;20.55;;;16.10;99.90;;;;;;5072031;28;20387;-70
2021/11/01 09:52:20;;;;;;;25.60;17.08;;;15.70;99.90;;;;;;5071513;28;20048;-70
2021/11/01 10:02:08;;;;;;;25.65;18.77;;;15.60;99.90;;;;;;5073349;28;20064;-65
2021/11/01 10:05:25;;;;;;;16.45;12.23;;;15.80;99.90;;;;;;5072561;28;20051;-65
2021/11/01 10:08:30;;;;;;;14.90;10.15;;;16.10;99.90;;;;;;5072070;28;20044;-65
2021/11/01 10:11:39;;;;;;;13.82;9.25;;;16.30;99.90;;;;;;5072488;28;20481;-66
2021/11/01 10:18:43;;;;;;;13.23;8.93;;;16.70;99.90;;;;;;5071553;28;20411;-66
2021/11/01 10:21:52;;;;;;;13.00;9.50;;;16.90;99.90;;;;;;5071837;28;20273;-66
2021/11/01 10:24:57;;;;;;;14.05;9.57;;;16.90;99.90;;;;;;5072061;28;20311;-66
2021/11/01 10:28:02;;;;;;;12.07;8.50;;;16.50;99.90;;;;;;5070239;28;20502;-66
2021/11/01 10:31:09;;;;;;;13.82;8.32;;;16.70;99.90;;;;;;5071444;28;20043;-66
2021/11/01 10:34:14;;;;;;;12.63;8.57;;;16.70;99.90;;;;;;5071409;28;20394;-66
2021/11/01 10:37:18;;;;;;;11.10;7.97;;;16.80;99.90;;;;;;5071999;28;20395;-66
2021/11/01 10:40:26;;;;;;;16.67;8.82;;;16.70;99.90;;;;;;5071990;28;20047;-66
2021/11/01 10:43:52;;;;;;;11.75;7.88;;;16.50;99.90;;;;;;5071614;28;20353;-67
2021/11/01 11:14:13;;;;;;;11.60;7.72;;;18.10;99.90;;;;;;5071349;28;20048;-70
2021/11/01 11:20:44;;;;;;;11.00;7.70;;;17.80;99.90;;;;;;5070450;28;20043;-70
2021/11/01 11:38:18;;;;;;;13.77;8.40;;;17.00;99.90;;;;;;5070411;28;20494;-70
2021/11/01 11:48:37;;;;;;;13.25;9.77;;;16.30;99.90;;;;;;5070083;28;20051;-69
2021/11/01 11:52:00;;;;;;;12.80;9.23;;;16.10;99.90;;;;;;5069988;28;20048;-70
2021/11/01 11:55:12;;;;;;;;;;;16.30;99.90;;;;;;5070629;28;20383;-71
2021/11/01 11:58:17;;;;;;;15.55;10.27;;;16.40;99.90;;;;;;5069906;28;19915;-70
2021/11/01 12:01:23;;;;;;;14.95;9.60;;;16.30;99.90;;;;;;5069686;28;20036;-71
2021/11/01 12:04:34;;;;;;;14.80;9.90;;;16.20;99.90;;;;;;5070523;28;20051;-69
2021/11/01 12:08:07;;;;;;;9.85;7.85;;;16.20;99.90;;;;;;5071088;28;20394;-70
2021/11/01 12:11:29;;;;;;;14.35;9.57;;;16.30;99.90;;;;;;5069690;28;20048;-70
2021/11/01 12:17:57;;;;;;;11.82;8.63;;;16.40;99.90;;;;;;5070503;28;20040;-70
2021/11/01 12:21:01;;;;;;;18.75;11.82;;;16.40;99.90;;;;;;5070456;28;20051;-70
2021/11/01 12:24:15;;;;;;;12.43;9.38;;;16.40;99.90;;;;;;5069409;28;20386;-70
2021/11/01 12:27:19;;;;;;;11.73;7.95;;;16.40;99.90;;;;;;5070326;28;20040;-69
2021/11/01 12:30:30;;;;;;;12.38;8.65;;;16.40;99.90;;;;;;5069904;28;20044;-69
2021/11/01 12:33:39;;;;;;;12.23;8.68;;;16.40;99.90;;;;;;5072105;28;20055;-69
2021/11/01 12:37:12;;;;;;;10.82;7.50;;;16.50;99.90;;;;;;5074228;28;20036;-69
2021/11/01 12:57:24;;;;;;;11.93;8.20;;;16.70;99.90;;;;;;5073392;28;20387;-67
2021/11/01 13:00:38;;;;;;;9.90;7.20;;;16.70;99.90;;;;;;5073501;28;20036;-68
2021/11/01 13:03:54;;;;;;;11.75;8.80;;;17.00;99.90;;;;;;5073325;28;20390;-67
2021/11/01 13:10:38;;;;;;;9.13;7.05;;;17.00;99.90;;;;;;5072772;28;20044;-66
2021/11/01 13:14:00;;;;;;;8.23;6.68;;;17.00;99.90;;;;;;5073103;28;20047;-67
2021/11/01 13:20:29;;;;;;;8.88;6.05;;;16.90;99.90;;;;;;5071823;28;20036;-68
2021/11/01 13:23:36;;;;;;;7.75;5.85;;;16.60;99.90;;;;;;5072897;28;20494;-67
2021/11/01 13:37:22;;;;;;;9.50;5.30;;;15.90;99.90;;;;;;5072914;28;20044;-67
2021/11/01 13:40:34;;;;;;;6.32;4.72;;;15.70;99.90;;;;;;5072730;28;20044;-67
2021/11/01 13:43:38;;;;;;;5.78;4.20;;;15.50;99.90;;;;;;5072350;28;20402;-67
2021/11/01 13:46:48;;;;;;;6.03;4.45;;;15.40;99.90;;;;;;5072713;28;20051;-68
2021/11/01 13:49:52;;;;;;;6.90;4.90;;;15.30;99.90;;;;;;5072029;28;20410;-67
2021/11/01 13:53:01;;;;;;;6.57;5.53;;;15.20;99.90;;;;;;5072316;28;20114;-68
2021/11/01 13:56:36;;;;;;;8.13;6.30;;;15.20;99.90;;;;;;5072445;28;20382;-66
2021/11/01 14:03:40;;;;;;;9.93;6.95;;;15.30;99.90;;;;;;5071977;28;20047;-67
2021/11/01 14:20:13;;;;;;;11.70;9.02;;;15.40;99.90;;;;;;5071606;28;20043;-67
2021/11/01 15:10:49;;;;;;;14.35;9.90;;;14.90;99.90;;;;;;5070446;28;20059;-66
2021/11/01 16:19:40;;;;;;;4.75;3.13;;;15.30;99.90;;;;;;5073880;28;20048;-64
2021/11/01 16:22:45;;;;;;;3.25;2.67;;;15.40;99.90;;;;;;5074285;28;20402;-67
2021/11/01 16:25:55;;;;;;;4.40;3.20;;;15.50;99.90;;;;;;5073996;28;20049;-67
2021/11/01 16:29:11;;;;;;;4.85;2.83;;;15.50;99.90;;;;;;5073454;28;20039;-66
2021/11/01 16:32:28;;;;;;;4.35;2.70;;;15.50;99.90;;;;;;5073600;28;20043;-67
2021/11/01 16:35:50;;;;;;;3.75;2.92;;;15.50;99.90;;;;;;5073696;28;20048;-66
2021/11/01 16:38:56;;;;;;;4.55;2.95;;;15.60;99.90;;;;;;5073122;28;20044;-66
2021/11/01 16:42:02;;;;;;;5.47;3.10;;;15.60;99.90;;;;;;5073137;28;20051;-66
2021/11/01 16:45:12;;;;;;;3.88;3.00;;;15.60;99.90;;;;;;5073620;28;20501;-66
2021/11/01 16:48:22;;;;;;;4.65;3.30;;;15.50;99.90;;;;;;5073222;28;20233;-65
2021/11/01 16:51:26;;;;;;;3.60;2.78;;;15.60;99.90;;;;;;5073693;28;20383;-66
2021/11/01 16:54:33;;;;;;;5.03;3.60;;;15.70;99.90;;;;;;5073152;28;20043;-66
2021/11/01 16:57:44;;;;;;;4.65;3.15;;;15.70;99.90;;;;;;5073427;28;20486;-66
2021/11/01 17:01:05;;;;;;;4.18;3.00;;;15.80;99.90;;;;;;5073185;28;20060;-66
2021/11/01 17:04:13;;;;;;;8.85;3.55;;;15.80;99.90;;;;;;5073162;28;20043;-67
2021/11/01 17:08:17;;;;;;;3.58;2.65;;;15.80;99.90;;;;;;5073069;28;20059;-66
2021/11/01 18:52:32;;;;;;;5.95;3.58;;;16.20;99.90;;;;;;5070664;28;20053;-67
2021/11/01 18:55:37;;;;;;;7.88;3.42;;;16.10;99.90;;;;;;5071119;28;20502;-67
2021/11/01 20:04:08;;;;;;;7.13;1.00;;;15.10;99.90;;;;;;5070385;28;20059;-66
2021/11/01 20:08:13;;;;;;;7.00;1.60;;;15.00;99.90;;;;;;5069699;28;20071;-66
2021/11/01 21:26:21;;;;;;;9.52;1.92;;;14.10;99.90;;;;;;5072965;28;20047;-67
2021/11/01 21:29:27;;;;;;;13.15;2.05;;;14.10;99.90;;;;;;5071905;28;20486;-67
2021/11/01 21:32:31;;;;;;;7.18;1.40;;;14.10;99.90;;;;;;5072706;28;20051;-67
2021/11/01 21:35:42;;;;;;;4.38;1.50;;;14.10;99.90;;;;;;5072814;28;20497;-67
2021/11/01 21:38:47;;;;;;;7.28;1.85;;;14.10;99.90;;;;;;5071547;28;20059;-67
2021/11/01 21:41:51;;;;;;;10.23;2.05;;;14.20;99.90;;;;;;5071603;28;20043;-67
2021/11/01 21:44:55;;;;;;;3.72;1.35;;;14.20;99.90;;;;;;5073193;28;20474;-67
2021/11/01 21:47:59;;;;;;;9.73;1.50;;;14.10;99.90;;;;;;5072649;28;20490;-67
2021/11/01 21:51:03;;;;;;;11.23;1.27;;;14.00;99.90;;;;;;5072692;28;20051;-67
2021/11/01 22:01:09;;;;;;;;;;;13.90;99.90;;;;;;5072886;28;20039;-67
2021/11/01 22:17:52;;;;;;;10.38;1.80;;;13.70;99.90;;;;;;5072214;28;19915;-67
2021/11/01 22:21:08;;;;;;;8.82;1.30;;;13.60;99.90;;;;;;5071747;28;20063;-67
2021/11/01 22:40:52;;;;;;;5.93;0.85;;;13.70;99.90;;;;;;5071486;28;20035;-67
2021/11/01 22:57:27;;;;;;;10.32;1.05;;;13.90;99.90;;;;;;5071289;28;20040;-67
2021/11/01 23:00:52;;;;;;;4.28;0.90;;;14.00;99.90;;;;;;5071578;28;20051;-68
2021/11/01 23:31:25;;;;;;;4.60;1.17;;;13.90;99.90;;;;;;5071256;28;20404;-68
2021/11/01 23:34:15;;;;;;;4.35;1.05;;;14.00;99.90;;;;;;5070867;28;20040;-68
2021/11/01 23:37:20;;;;;;;8.75;0.90;;;14.00;99.90;;;;;;5070872;28;20055;-68
2021/11/01 23:40:24;;;;;;;10.70;1.05;;;14.00;99.90;;;;;;5070504;28;20043;-68
2021/11/01 23:43:29;;;;;;;5.72;1.00;;;13.90;99.90;;;;;;5070722;28;20517;-69
2021/11/01 23:46:34;;;;;;;6.97;0.80;;;14.00;99.90;;;;;;5070413;28;20051;-68
2021/11/01 23:49:38;;;;;;;8.90;0.90;;;13.90;99.90;;;;;;5070616;28;20051;-68
2021/11/01 23:52:54;;;;;;;6.38;0.82;;;13.90;99.90;;;;;;5070686;28;20043;-68
2021/11/01 23:55:58;;;;;;;7.80;1.08;;;13.90;99.90;;;;;;5070764;28;20044;-68
2021/11/01 23:59:03;;;;;;;4.68;1.20;;;13.90;99.90;;;;;;5069836;28;20044;-68
